Time;durP1;ratioP1;P1;durP2;ratioP2;P2;SDS_P1;SDS_P2;PMS_P1;PMS_P2;Temp;Humidity;BMP_temperature;BMP_pressure;BME280_temperature;BME280_humidity;BME280_pressure;Samples;Min_cycle;Max_cycle;Signal;HPM_P1;HPM_P2
2021/06/04 00:01:14;;;;;;;6.47;3.85;;;;;;;17.60;72.44;101151.09;5049400;28;21758;-74
2021/06/04 00:03:40;;;;;;;8.23;4.10;;;;;;;17.70;71.88;101151.28;5047161;28;20029;-74
2021/06/04 00:06:07;;;;;;;6.40;4.72;;;;;;;17.76;71.60;101136.59;5050056;28;20039;-75
2021/06/04 00:08:33;;;;;;;5.70;4.03;;;;;;;17.79;71.95;101141.00;5014448;28;20048;-74
2021/06/04 00:11:21;;;;;;;6.55;4.47;;;;;;;17.68;72.03;101146.00;5050497;28;20029;-73
2021/06/04 00:13:56;;;;;;;8.00;4.28;;;;;;;17.28;73.15;101127.88;5050744;28;20043;-72
2021/06/04 00:16:30;;;;;;;7.57;4.50;;;;;;;17.14;74.08;101143.22;5050917;28;20029;-73
2021/06/04 00:18:57;;;;;;;9.63;4.55;;;;;;;16.82;74.78;101112.13;5032325;28;20052;-73
2021/06/04 00:21:27;;;;;;;5.43;3.92;;;;;;;16.44;75.75;101072.16;5032799;28;20076;-72
2021/06/04 00:23:55;;;;;;;9.38;5.07;;;;;;;16.65;76.24;101130.00;5050229;28;20025;-71
2021/06/04 00:26:21;;;;;;;8.77;4.97;;;;;;;16.43;76.93;101112.97;5050638;28;20021;-73
2021/06/04 00:28:48;;;;;;;8.80;4.50;;;;;;;16.55;76.56;101128.03;5050497;28;20021;-73
2021/06/04 00:31:13;;;;;;;8.05;5.30;;;;;;;16.54;76.58;101131.47;5050253;28;20032;-71
2021/06/04 00:33:39;;;;;;;8.60;4.50;;;;;;;16.63;76.43;101130.81;5050264;28;20021;-73
2021/06/04 00:36:07;;;;;;;11.73;5.22;;;;;;;16.75;76.14;101125.00;5050312;28;20029;-75
2021/06/04 00:38:34;;;;;;;9.23;5.07;;;;;;;16.79;76.08;101134.63;5050605;28;20025;-73
2021/06/04 00:41:05;;;;;;;8.18;4.97;;;;;;;16.86;76.07;101133.03;5050438;28;20029;-73
2021/06/04 00:43:30;;;;;;;11.95;5.10;;;;;;;16.74;76.44;101123.22;5036004;28;20025;-72
2021/06/04 00:45:57;;;;;;;7.38;4.50;;;;;;;16.62;76.23;101127.31;5032564;28;20036;-77
2021/06/04 00:48:25;;;;;;;6.93;4.43;;;;;;;16.61;76.15;101127.25;5050222;28;20027;-73
2021/06/04 00:51:05;;;;;;;7.53;4.75;;;;;;;16.75;75.37;101130.22;5050708;28;20059;-73
2021/06/04 00:53:31;;;;;;;8.38;4.57;;;;;;;16.71;75.98;101126.66;5050394;28;20021;-72
2021/06/04 00:55:57;;;;;;;9.90;4.82;;;;;;;16.81;76.32;101136.44;5050521;28;20029;-72
2021/06/04 00:58:28;;;;;;;7.05;4.28;;;;;;;16.78;75.91;101135.47;5050143;28;20071;-72
2021/06/04 01:00:57;;;;;;;8.52;4.18;;;;;;;16.82;75.43;101139.91;5050018;28;20035;-74
2021/06/04 01:03:26;;;;;;;6.38;4.18;;;;;;;16.85;75.16;101133.88;5033013;28;20021;-73
2021/06/04 01:05:57;;;;;;;6.60;4.05;;;;;;;16.84;75.45;101138.22;5050471;28;20029;-76
2021/06/04 01:08:55;;;;;;;7.38;4.32;;;;;;;16.65;76.28;101122.16;5050820;28;20029;-69
2021/06/04 01:12:10;;;;;;;5.82;4.38;;;;;;;16.77;76.40;101139.81;4972306;28;20046;-74
2021/06/04 01:15:30;;;;;;;6.65;4.57;;;;;;;16.77;75.83;101139.81;4990090;28;20030;-78
2021/06/04 01:18:07;;;;;;;6.10;4.00;;;;;;;16.63;75.91;101121.25;4877824;29;20044;-74
2021/06/04 01:20:35;;;;;;;6.38;4.78;;;;;;;16.70;75.91;101135.31;4877950;29;20061;-72
2021/06/04 01:23:11;;;;;;;5.80;4.53;;;;;;;16.66;75.96;101133.50;4877713;29;20041;-74
2021/06/04 01:25:51;;;;;;;6.68;4.70;;;;;;;16.20;76.17;101064.66;4877683;29;20045;-75
2021/06/04 01:28:22;;;;;;;10.85;5.00;;;;;;;16.53;76.59;101134.91;4877926;29;20045;-79
2021/06/04 01:30:58;;;;;;;7.55;4.90;;;;;;;16.50;76.85;101133.13;4877747;29;20047;-75
2021/06/04 01:33:30;;;;;;;12.00;4.80;;;;;;;16.50;76.97;101133.13;4877762;29;20033;-76
2021/06/04 01:35:59;;;;;;;7.70;4.32;;;;;;;16.40;77.39;101117.22;4877737;29;20075;-73
2021/06/04 01:38:30;;;;;;;5.73;4.67;;;;;;;16.30;77.21;101109.22;4877416;29;20120;-78
2021/06/04 01:41:00;;;;;;;6.78;4.15;;;;;;;16.15;77.27;101085.41;4876169;29;20069;-73
2021/06/04 01:43:38;;;;;;;6.75;4.65;;;;;;;16.48;77.51;101139.16;4877827;29;20044;-72
2021/06/04 01:46:11;;;;;;;10.93;5.07;;;;;;;16.50;77.30;101133.13;4877860;29;20048;-74
2021/06/04 01:48:40;;;;;;;6.68;4.75;;;;;;;16.29;77.04;101132.63;4916139;29;20489;-74
2021/06/04 01:51:06;;;;;;;6.78;5.03;;;;;;;16.25;77.48;101144.69;4953824;28;20059;-70
2021/06/04 01:53:36;;;;;;;6.35;4.60;;;;;;;16.00;77.11;101086.78;5053511;28;20024;-72
2021/06/04 01:56:25;;;;;;;10.98;5.05;;;;;;;16.40;76.65;101145.88;5019774;28;20431;-73
2021/06/04 01:59:00;;;;;;;8.35;5.05;;;;;;;16.45;76.76;101137.34;5017512;28;20025;-74
2021/06/04 02:01:41;;;;;;;6.95;4.60;;;;;;;16.53;76.59;101147.09;5042855;28;20029;-70
2021/06/04 02:04:12;;;;;;;8.48;4.55;;;;;;;16.47;76.65;101135.69;5035963;28;20419;-73
2021/06/04 02:06:38;;;;;;;7.50;5.25;;;;;;;16.46;76.63;101140.81;5034515;28;20043;-71
2021/06/04 02:09:10;;;;;;;9.23;4.80;;;;;;;16.44;76.36;101145.16;5036026;28;20403;-75
2021/06/04 02:11:37;;;;;;;6.53;5.20;;;;;;;16.25;76.65;101128.16;5042080;28;20098;-70
2021/06/04 02:14:06;;;;;;;7.55;4.97;;;;;;;16.31;77.07;101141.34;5052768;28;20083;-70
2021/06/04 02:16:50;;;;;;;12.35;5.50;;;;;;;16.16;77.10;101127.13;5052669;28;20402;-71
2021/06/04 02:19:37;;;;;;;8.88;4.93;;;;;;;16.34;76.72;101144.91;5031175;28;20053;-69
2021/06/04 02:22:03;;;;;;;7.45;4.90;;;;;;;16.38;76.69;101150.22;5052389;28;20044;-71
2021/06/04 02:24:56;;;;;;;9.25;4.75;;;;;;;16.37;76.40;101154.53;5034853;28;20032;-71
2021/06/04 02:27:46;;;;;;;7.85;4.88;;;;;;;15.95;76.50;101091.00;5051627;28;20053;-72
2021/06/04 02:30:15;;;;;;;7.88;5.13;;;;;;;16.31;76.59;101155.28;5033153;28;20033;-70
2021/06/04 02:32:56;;;;;;;10.77;4.55;;;;;;;15.97;77.16;101112.72;5033350;28;20021;-70
2021/06/04 02:35:57;;;;;;;7.65;4.35;;;;;;;16.19;77.46;101160.19;5033176;28;20032;-70
2021/06/04 02:38:48;;;;;;;9.48;4.90;;;;;;;16.18;77.99;101159.28;4971600;28;20031;-73
2021/06/04 02:41:29;;;;;;;6.35;4.50;;;;;;;15.92;78.04;101139.50;4971739;28;20136;-69
2021/06/04 02:44:02;;;;;;;9.85;4.70;;;;;;;15.87;79.17;101173.25;4971742;28;20031;-70
2021/06/04 02:46:53;;;;;;;10.27;5.07;;;;;;;15.63;79.99;101169.09;4971601;28;20081;-70
2021/06/04 02:49:21;;;;;;;6.93;4.80;;;;;;;15.56;80.92;101168.91;4971656;28;20039;-71
2021/06/04 02:52:09;;;;;;;8.32;5.25;;;;;;;15.57;81.05;101168.94;4971611;28;20066;-69
2021/06/04 02:54:39;;;;;;;7.13;4.78;;;;;;;15.59;81.14;101172.47;4971647;28;20034;-71
2021/06/04 02:57:11;;;;;;;6.18;4.80;;;;;;;15.60;80.74;101163.84;4971684;28;20041;-70
2021/06/04 02:59:41;;;;;;;8.65;4.72;;;;;;;15.72;80.62;101171.06;4971511;28;20027;-70
2021/06/04 03:02:38;;;;;;;9.32;4.93;;;;;;;15.57;80.94;101174.13;4971474;28;20039;-70
2021/06/04 03:05:17;;;;;;;6.68;4.80;;;;;;;15.48;81.52;101173.91;4971443;28;20042;-73
2021/06/04 03:07:43;;;;;;;9.88;4.70;;;;;;;15.34;81.74;101165.72;4971332;28;20117;-70
2021/06/04 03:10:34;;;;;;;9.70;5.03;;;;;;;15.28;81.85;101171.59;4971452;28;20070;-70
2021/06/04 03:13:08;;;;;;;7.35;4.70;;;;;;;15.35;82.34;101191.75;4913603;29;20066;-71
2021/06/04 03:15:41;;;;;;;7.65;4.57;;;;;;;15.36;82.08;101184.81;4964264;28;20480;-70
2021/06/04 03:18:10;;;;;;;5.82;4.43;;;;;;;15.35;81.66;101162.25;4990027;28;20054;-69
2021/06/04 03:20:41;;;;;;;8.90;5.22;;;;;;;15.35;81.68;101178.75;4990539;28;20073;-71
2021/06/04 03:23:09;;;;;;;8.73;4.70;;;;;;;15.47;81.25;101187.75;4990692;28;20034;-73
2021/06/04 03:28:25;;;;;;;9.60;4.90;;;;;;;15.51;80.91;101189.59;5285586;22;20203;-72
2021/06/04 03:30:51;;;;;;;8.75;5.05;;;;;;;15.45;81.40;101186.81;5012162;28;20044;-73
2021/06/04 03:33:21;;;;;;;7.68;4.90;;;;;;;15.40;81.96;101193.59;5011195;28;20046;-70
2021/06/04 03:35:48;;;;;;;9.45;4.90;;;;;;;15.42;81.60;101182.41;5007145;28;20455;-71
2021/06/04 03:41:00;;;;;;;6.80;5.00;;;;;;;14.82;81.74;101082.72;5146843;22;20135;-73
2021/06/04 03:43:27;;;;;;;7.30;4.78;;;;;;;15.58;81.41;101191.53;5072788;28;20129;-71
2021/06/04 03:45:53;;;;;;;6.75;4.93;;;;;;;15.53;81.99;101194.00;5070979;28;20029;-72
2021/06/04 03:48:25;;;;;;;9.32;5.47;;;;;;;15.52;81.67;101180.94;5071371;28;20032;-72
2021/06/04 03:50:53;;;;;;;6.07;4.93;;;;;;;15.39;81.39;101139.78;5070780;28;20465;-72
2021/06/04 03:53:20;;;;;;;7.00;5.00;;;;;;;15.72;81.12;101197.09;5069693;28;20514;-74
2021/06/04 03:55:46;;;;;;;7.50;4.93;;;;;;;15.68;81.06;101196.13;5071245;28;20035;-70
2021/06/04 03:58:14;;;;;;;9.45;4.70;;;;;;;15.75;80.90;101198.91;5071696;28;20418;-69
2021/06/04 04:00:52;;;;;;;6.75;5.28;;;;;;;15.60;81.19;101188.97;5071033;28;20043;-72
2021/06/04 04:03:21;;;;;;;6.72;4.63;;;;;;;15.64;81.31;101196.91;5051436;28;20100;-74
2021/06/04 04:05:47;;;;;;;8.43;5.18;;;;;;;15.67;80.94;101196.97;5051441;28;20112;-69
2021/06/04 04:08:16;;;;;;;7.72;4.68;;;;;;;15.76;80.99;101209.34;5051360;28;20100;-70
2021/06/04 04:10:42;;;;;;;9.88;4.75;;;;;;;15.80;81.01;101219.03;5051623;28;20079;-69
2021/06/04 04:13:13;;;;;;;8.55;5.05;;;;;;;15.51;80.70;101151.44;5051458;28;20029;-70
2021/06/04 04:15:39;;;;;;;6.13;5.00;;;;;;;15.94;80.66;101219.44;5051764;28;20048;-74
2021/06/04 04:18:05;;;;;;;6.97;4.85;;;;;;;15.98;80.41;101207.38;5050856;28;20062;-73
2021/06/04 04:20:34;;;;;;;9.10;5.03;;;;;;;16.14;80.25;101219.09;5070825;28;20068;-69
2021/06/04 04:23:00;;;;;;;7.55;5.38;;;;;;;16.13;79.53;101225.13;5071197;28;20052;-72
2021/06/04 04:25:30;;;;;;;10.50;4.75;;;;;;;16.09;80.18;101216.38;5071557;28;20032;-70
2021/06/04 04:27:56;;;;;;;;;;;;;;;16.11;80.39;101219.91;5071667;28;20372;-70
2021/06/04 04:30:22;;;;;;;8.85;4.97;;;;;;;16.08;79.99;101225.00;5071249;28;19914;-73
2021/06/04 04:32:49;;;;;;;7.28;5.38;;;;;;;16.01;80.50;101230.88;5071213;28;20021;-69
2021/06/04 04:35:34;;;;;;;7.35;5.25;;;;;;;16.11;80.42;101225.09;5071205;28;20082;-73
2021/06/04 04:38:01;;;;;;;7.53;5.38;;;;;;;16.22;79.86;101224.50;5071223;28;20107;-75
2021/06/04 04:40:29;;;;;;;8.40;5.45;;;;;;;16.28;80.20;101230.75;5071045;28;20087;-74
2021/06/04 04:42:55;;;;;;;8.77;5.38;;;;;;;16.20;80.38;101229.69;5071184;28;20028;-70
2021/06/04 04:45:23;;;;;;;8.07;5.85;;;;;;;15.87;80.99;101174.97;5071063;28;20032;-75
2021/06/04 04:47:49;;;;;;;9.40;5.75;;;;;;;16.27;81.06;101234.19;5070852;28;20028;-70
2021/06/04 04:50:15;;;;;;;8.60;5.80;;;;;;;16.40;80.43;101231.88;5073729;28;20086;-70
2021/06/04 04:52:41;;;;;;;10.70;5.75;;;;;;;16.39;81.18;101224.94;5074741;28;20027;-70
2021/06/04 04:55:08;;;;;;;7.55;5.60;;;;;;;16.42;81.97;101222.41;5065794;28;20029;-70
2021/06/04 04:57:33;;;;;;;7.43;5.88;;;;;;;16.48;82.73;101238.19;5063196;28;20388;-70
2021/06/04 04:59:59;;;;;;;10.13;5.97;;;;;;;16.52;82.20;101241.75;5063617;28;20118;-70
2021/06/04 05:02:25;;;;;;;9.65;6.10;;;;;;;16.57;81.94;101238.41;5066960;28;20550;-69
2021/06/04 05:04:51;;;;;;;6.93;5.75;;;;;;;16.58;82.16;101240.16;5049714;28;20488;-69
2021/06/04 05:07:17;;;;;;;8.80;6.10;;;;;;;16.50;82.14;101234.78;5071925;28;20051;-71
2021/06/04 05:09:42;;;;;;;7.18;5.65;;;;;;;16.55;82.44;101241.81;5072565;28;20052;-70
2021/06/04 05:12:08;;;;;;;8.45;6.05;;;;;;;16.69;82.13;101250.00;5063533;28;20108;-70
2021/06/04 05:14:34;;;;;;;7.03;6.05;;;;;;;16.69;80.56;101247.41;5064936;28;20489;-70
2021/06/04 05:17:01;;;;;;;10.35;6.18;;;;;;;16.56;80.51;101251.41;5064361;28;20031;-71
2021/06/04 05:19:27;;;;;;;12.55;5.88;;;;;;;16.53;79.69;101246.13;5069019;28;20062;-70
2021/06/04 05:21:53;;;;;;;11.77;5.95;;;;;;;16.50;79.37;101239.13;5070830;28;20025;-70
2021/06/04 05:24:19;;;;;;;8.88;6.28;;;;;;;16.59;79.84;101241.94;5074589;28;20056;-70
2021/06/04 05:26:44;;;;;;;11.40;6.30;;;;;;;16.71;78.53;101250.91;5072434;28;20064;-70
2021/06/04 05:29:11;;;;;;;7.25;5.45;;;;;;;16.82;77.78;101252.94;5074157;28;20028;-70
2021/06/04 05:31:38;;;;;;;8.35;5.65;;;;;;;16.93;77.15;101257.56;5074075;28;20060;-69
2021/06/04 05:34:22;;;;;;;10.23;6.05;;;;;;;17.05;76.30;101256.97;5066793;28;20051;-71
2021/06/04 05:36:48;;;;;;;7.57;4.85;;;;;;;17.06;75.13;101257.00;5064179;28;20032;-70
2021/06/04 05:39:20;;;;;;;7.78;5.53;;;;;;;16.61;76.10;101182.91;5055755;28;20061;-70
2021/06/04 05:41:51;;;;;;;10.43;6.20;;;;;;;17.09;75.85;101258.78;5035328;28;20535;-69
2021/06/04 05:44:20;;;;;;;11.20;6.20;;;;;;;17.06;76.38;101258.69;5045002;28;20111;-73
2021/06/04 05:46:48;;;;;;;8.60;5.50;;;;;;;17.07;76.36;101263.09;5051537;28;20028;-71
2021/06/04 05:49:14;;;;;;;9.15;6.15;;;;;;;17.11;77.12;101267.53;5041344;28;20605;-70
2021/06/04 05:51:39;;;;;;;9.15;6.10;;;;;;;17.20;76.82;101269.47;5032468;28;20037;-70
2021/06/04 05:54:06;;;;;;;10.93;6.70;;;;;;;17.35;76.93;101267.19;5031521;28;20091;-70
2021/06/04 05:56:32;;;;;;;9.13;5.82;;;;;;;17.06;76.07;101203.91;5031191;28;20022;-70
2021/06/04 05:58:58;;;;;;;8.50;6.40;;;;;;;17.55;75.65;101262.41;5018360;28;20071;-72
2021/06/04 06:01:30;;;;;;;8.73;5.82;;;;;;;17.72;74.68;101264.47;5029002;28;20030;-72
2021/06/04 06:03:56;;;;;;;9.23;5.70;;;;;;;17.86;73.55;101264.78;5030287;28;20041;-69
2021/06/04 06:06:22;;;;;;;7.97;5.40;;;;;;;17.88;74.21;101268.28;5030077;28;20046;-70
2021/06/04 06:08:48;;;;;;;7.45;4.97;;;;;;;17.82;73.31;101236.81;5030782;28;20099;-73
2021/06/04 06:11:16;;;;;;;5.35;4.60;;;;;;;17.31;71.87;101194.91;5009992;28;20042;-69
2021/06/04 06:13:42;;;;;;;6.18;4.20;;;;;;;17.87;70.68;101270.00;4994394;28;20034;-70
2021/06/04 06:16:08;;;;;;;8.20;5.25;;;;;;;17.94;70.82;101282.38;5010638;28;20050;-69
2021/06/04 06:18:34;;;;;;;10.38;4.97;;;;;;;17.85;71.75;101270.84;5010574;28;20034;-70
2021/06/04 06:21:00;;;;;;;7.00;4.78;;;;;;;17.64;70.87;101230.38;5041616;28;20491;-73
2021/06/04 06:23:29;;;;;;;5.95;4.60;;;;;;;17.78;71.78;101249.81;5050803;28;20095;-71
2021/06/04 06:26:02;;;;;;;8.07;4.60;;;;;;;18.06;70.91;101281.72;5050049;28;20132;-73
2021/06/04 06:28:33;;;;;;;7.43;4.88;;;;;;;18.13;70.18;101277.53;5050107;28;20060;-69
2021/06/04 06:31:00;;;;;;;6.75;4.53;;;;;;;18.13;69.87;101267.06;5048285;28;20131;-69
2021/06/04 06:33:26;;;;;;;8.02;4.55;;;;;;;18.25;68.53;101271.63;5050443;28;20104;-70
2021/06/04 06:35:57;;;;;;;8.27;4.65;;;;;;;18.32;67.36;101270.00;5050145;28;20146;-70
2021/06/04 06:38:24;;;;;;;11.57;5.30;;;;;;;18.12;66.37;101275.75;5049952;28;20470;-69
2021/06/04 06:40:51;;;;;;;6.45;4.35;;;;;;;17.94;68.37;101221.41;5049847;28;20503;-69
2021/06/04 06:43:18;;;;;;;4.90;4.25;;;;;;;18.27;67.37;101262.09;5052936;28;20040;-69
2021/06/04 06:45:44;;;;;;;5.63;4.00;;;;;;;18.13;66.49;101274.91;5052529;28;20068;-69
2021/06/04 06:48:11;;;;;;;6.30;4.30;;;;;;;17.86;67.92;101241.25;5034577;28;20055;-73
2021/06/04 06:50:39;;;;;;;8.85;4.30;;;;;;;17.61;68.39;101212.06;5052551;28;20021;-69
2021/06/04 06:53:06;;;;;;;8.98;4.68;;;;;;;17.90;68.68;101263.97;5052845;28;20036;-69
2021/06/04 06:55:33;;;;;;;8.35;4.53;;;;;;;17.65;69.83;101207.78;5052460;28;20095;-69
2021/06/04 06:57:59;;;;;;;6.57;4.25;;;;;;;17.92;68.49;101278.81;5034622;28;20112;-69
2021/06/04 07:00:33;;;;;;;8.07;5.10;;;;;;;17.78;69.91;101268.09;5052624;28;20029;-71
2021/06/04 07:02:59;;;;;;;5.10;4.28;;;;;;;17.78;69.71;101270.72;5049488;28;20040;-74
2021/06/04 07:05:27;;;;;;;5.47;4.38;;;;;;;17.97;70.50;101284.19;5033227;28;20040;-72
2021/06/04 07:07:53;;;;;;;6.03;4.05;;;;;;;17.89;68.48;101281.34;5016901;28;20037;-70
2021/06/04 07:10:22;;;;;;;6.35;4.57;;;;;;;17.97;68.98;101278.06;5051897;28;20415;-70
2021/06/04 07:12:48;;;;;;;6.15;4.50;;;;;;;18.05;70.57;101269.50;5051926;28;20025;-72
2021/06/04 07:15:17;;;;;;;5.70;4.47;;;;;;;18.01;70.55;101275.53;5052067;28;20064;-69
2021/06/04 07:17:43;;;;;;;6.05;4.53;;;;;;;18.05;70.36;101263.41;5051796;28;20056;-74
2021/06/04 07:20:13;;;;;;;6.75;4.88;;;;;;;18.08;69.93;101271.31;5052403;28;20045;-73
2021/06/04 07:22:41;;;;;;;9.98;4.88;;;;;;;18.15;70.43;101259.25;5061130;28;20494;-70
2021/06/04 07:25:16;;;;;;;6.90;4.57;;;;;;;18.34;67.51;101278.75;5062340;28;20029;-69
2021/06/04 07:27:44;;;;;;;7.22;4.70;;;;;;;18.33;66.92;101274.38;5067268;28;20032;-73
2021/06/04 07:30:11;;;;;;;5.05;4.55;;;;;;;18.31;67.25;101255.19;5051493;28;20175;-71
2021/06/04 07:32:39;;;;;;;7.57;4.53;;;;;;;18.34;65.81;101273.53;5048399;28;20139;-74
2021/06/04 07:35:07;;;;;;;7.10;4.38;;;;;;;18.26;66.00;101244.63;5071694;28;20027;-71
2021/06/04 07:37:33;;;;;;;8.23;4.60;;;;;;;18.46;66.35;101272.88;5065845;28;20036;-72
2021/06/04 07:39:59;;;;;;;6.18;3.90;;;;;;;18.45;67.15;101274.59;5071640;28;20052;-69
2021/06/04 07:42:25;;;;;;;7.70;4.47;;;;;;;18.48;66.57;101268.53;5053478;28;20453;-70
2021/06/04 07:44:50;;;;;;;10.73;4.60;;;;;;;18.21;68.90;101209.72;5068907;28;20032;-70
2021/06/04 07:47:16;;;;;;;10.77;4.57;;;;;;;18.65;68.34;101266.22;5065562;28;20028;-70
2021/06/04 07:49:41;;;;;;;8.63;4.63;;;;;;;18.69;65.80;101268.91;5053746;28;20036;-73
2021/06/04 07:52:07;;;;;;;6.80;3.47;;;;;;;18.39;62.58;101212.63;5068741;28;20108;-76
2021/06/04 07:54:34;;;;;;;5.80;3.70;;;;;;;18.85;63.89;101275.25;5071156;28;20178;-72
2021/06/04 07:57:02;;;;;;;5.10;4.45;;;;;;;18.90;63.97;101272.69;5069713;28;20494;-73
2021/06/04 07:59:27;;;;;;;7.80;4.30;;;;;;;19.17;64.41;101272.28;5070382;28;20024;-73
2021/06/04 08:01:53;;;;;;;10.18;4.65;;;;;;;19.12;62.89;101276.56;5061061;28;20025;-73
2021/06/04 08:04:19;;;;;;;6.75;4.03;;;;;;;19.32;61.90;101279.47;5063035;28;20032;-73
2021/06/04 08:06:44;;;;;;;9.63;4.22;;;;;;;19.38;62.79;101276.06;5064776;28;20024;-73
2021/06/04 08:09:14;;;;;;;6.47;4.30;;;;;;;19.56;62.22;101275.41;5071246;28;20060;-73
2021/06/04 08:11:49;;;;;;;6.18;4.28;;;;;;;19.65;63.27;101279.88;5067916;28;20414;-74
2021/06/04 08:14:19;;;;;;;6.18;4.10;;;;;;;19.76;63.63;101278.25;5061262;28;20535;-73
2021/06/04 08:16:46;;;;;;;6.65;3.50;;;;;;;19.68;60.21;101283.41;5050678;28;20054;-72
2021/06/04 08:19:14;;;;;;;7.50;4.43;;;;;;;19.72;59.81;101290.44;5050816;28;20036;-70
2021/06/04 08:21:46;;;;;;;6.25;3.65;;;;;;;19.69;58.57;101287.81;5059544;28;20028;-74
2021/06/04 08:24:35;;;;;;;5.72;3.75;;;;;;;19.69;60.40;101279.06;5060932;28;20097;-73
2021/06/04 08:27:03;;;;;;;7.53;3.90;;;;;;;19.84;61.38;101281.03;4991147;28;20044;-73
2021/06/04 08:29:31;;;;;;;6.25;3.50;;;;;;;20.12;61.58;101279.56;5009301;28;20049;-73
2021/06/04 08:31:58;;;;;;;8.65;3.50;;;;;;;20.33;61.33;101270.19;5006921;28;20057;-72
2021/06/04 08:34:24;;;;;;;9.43;3.10;;;;;;;20.36;56.07;101272.81;4975417;28;20476;-70
2021/06/04 08:36:50;;;;;;;8.10;3.42;;;;;;;20.42;58.62;101257.13;4975391;28;20049;-73
2021/06/04 08:39:21;;;;;;;8.20;3.85;;;;;;;20.47;57.67;101265.94;4954254;28;20434;-70
2021/06/04 08:42:07;;;;;;;6.78;3.70;;;;;;;20.59;59.91;101259.06;4972630;28;20035;-69
2021/06/04 08:44:47;;;;;;;4.95;3.50;;;;;;;20.02;57.76;101225.31;4976754;28;20130;-72
2021/06/04 08:47:16;;;;;;;7.15;3.72;;;;;;;20.58;58.17;101270.41;4954067;28;20040;-71
2021/06/04 08:50:06;;;;;;;5.97;3.85;;;;;;;20.50;60.47;101267.72;4964364;28;20038;-72
2021/06/04 08:52:39;;;;;;;;;;;;;;;20.63;57.84;101269.56;4973621;28;20540;-72
2021/06/04 08:55:23;;;;;;;5.15;3.47;;;;;;;20.27;57.62;101209.81;4957427;28;19961;-71
2021/06/04 08:57:59;;;;;;;5.47;3.58;;;;;;;20.80;56.89;101261.84;4948833;29;20141;-71
2021/06/04 09:00:28;;;;;;;5.25;3.30;;;;;;;21.06;57.19;101274.28;4948143;28;20502;-71
2021/06/04 09:03:05;;;;;;;5.70;3.60;;;;;;;20.99;56.58;101264.63;4933957;29;20142;-69
2021/06/04 09:05:41;;;;;;;4.68;3.38;;;;;;;20.96;55.03;101261.94;4949867;29;20399;-71
2021/06/04 09:08:15;;;;;;;4.60;3.83;;;;;;;21.28;56.10;101258.66;4948474;28;20040;-70
2021/06/04 09:10:52;;;;;;;4.97;3.60;;;;;;;21.48;54.72;101270.16;4948474;28;20035;-73
2021/06/04 09:13:31;;;;;;;6.57;3.55;;;;;;;21.49;54.34;101250.00;4969426;28;20039;-70
2021/06/04 09:16:06;;;;;;;6.45;3.90;;;;;;;21.60;56.68;101276.38;4969584;28;20093;-68
2021/06/04 09:18:42;;;;;;;5.50;3.30;;;;;;;21.76;53.10;101257.16;5047785;28;20048;-69
2021/06/04 09:21:34;;;;;;;5.32;3.55;;;;;;;21.87;54.11;101262.44;5047666;28;20414;-69
2021/06/04 09:24:02;;;;;;;6.15;3.60;;;;;;;22.02;52.94;101269.50;5047204;28;20052;-72
2021/06/04 09:26:29;;;;;;;5.53;4.18;;;;;;;21.77;55.09;101216.84;5047814;28;20024;-70
2021/06/04 09:29:04;;;;;;;8.50;3.63;;;;;;;21.91;53.45;101272.09;5060189;28;20052;-71
2021/06/04 09:31:45;;;;;;;4.68;3.67;;;;;;;22.00;52.83;101258.09;5070287;28;20060;-70
2021/06/04 09:34:24;;;;;;;6.65;3.28;;;;;;;21.77;51.42;101256.28;5070657;28;20051;-69
2021/06/04 09:36:59;;;;;;;7.57;3.50;;;;;;;22.06;51.98;101252.84;5072811;28;20060;-69
2021/06/04 09:39:50;;;;;;;6.47;3.10;;;;;;;21.73;50.68;101212.47;5053730;28;20419;-69
2021/06/04 09:42:34;;;;;;;3.88;2.95;;;;;;;22.10;49.69;101236.19;5054121;28;20098;-70
2021/06/04 09:45:41;;;;;;;5.95;3.13;;;;;;;22.10;52.83;101249.31;5061196;28;20033;-72
2021/06/04 09:48:11;;;;;;;4.25;2.33;;;;;;;22.16;48.17;101243.22;5053847;28;20025;-72
2021/06/04 09:50:48;;;;;;;4.55;2.20;;;;;;;22.23;46.44;101246.72;5053942;28;20112;-70
2021/06/04 09:53:19;;;;;;;4.53;2.45;;;;;;;22.32;48.43;101252.00;5053629;28;20056;-71
2021/06/04 09:56:12;;;;;;;3.47;2.50;;;;;;;22.37;48.51;101245.03;5053543;28;20024;-71
2021/06/04 09:58:51;;;;;;;5.55;2.33;;;;;;;22.09;45.99;101197.63;5053605;28;20576;-73
2021/06/04 10:01:22;;;;;;;2.97;2.30;;;;;;;22.38;46.87;101240.63;5035955;28;20121;-72
2021/06/04 10:03:57;;;;;;;4.72;2.53;;;;;;;22.41;48.57;101241.50;5056333;28;20036;-72
2021/06/04 10:06:27;;;;;;;3.22;2.42;;;;;;;22.29;47.17;101249.34;5054054;28;20079;-71
2021/06/04 10:08:54;;;;;;;3.80;2.58;;;;;;;22.32;45.85;101241.47;5053841;28;20045;-74
2021/06/04 10:11:25;;;;;;;5.22;2.20;;;;;;;22.36;45.19;101242.38;5059363;28;20025;-72
2021/06/04 10:14:24;;;;;;;3.35;2.35;;;;;;;22.35;46.70;101236.22;5063413;28;20533;-73
2021/06/04 10:19:23;;;;;;;4.15;2.33;;;;;;;22.60;47.66;101238.88;5061680;28;20008;-74
2021/06/04 10:22:27;;;;;;;5.15;2.53;;;;;;;22.56;47.40;101235.38;5063235;28;20024;-74
2021/06/04 10:25:12;;;;;;;4.13;2.30;;;;;;;22.85;47.96;101238.84;5053965;28;20025;-70
2021/06/04 10:27:47;;;;;;;3.97;2.30;;;;;;;23.06;44.25;101238.78;5059509;28;20106;-73
2021/06/04 10:30:18;;;;;;;6.32;2.40;;;;;;;22.88;44.87;101241.47;5044401;28;20029;-72
2021/06/04 10:32:53;;;;;;;5.78;2.50;;;;;;;22.48;48.65;101236.25;5062197;28;20036;-73
2021/06/04 10:35:24;;;;;;;4.85;2.17;;;;;;;22.68;45.76;101239.75;5067593;28;20023;-72
2021/06/04 10:37:56;;;;;;;3.67;2.33;;;;;;;22.28;42.25;101244.97;5063419;28;20045;-72
2021/06/04 10:40:34;;;;;;;2.83;2.13;;;;;;;22.50;44.10;101238.00;5063351;28;20048;-73
2021/06/04 10:43:30;;;;;;;8.13;2.40;;;;;;;22.46;46.35;101186.25;5063662;28;20033;-71
2021/06/04 10:46:17;;;;;;;3.35;2.45;;;;;;;22.88;44.56;101236.19;5070871;28;20024;-74
2021/06/04 10:49:16;;;;;;;4.03;2.30;;;;;;;22.94;46.10;101241.44;5071943;28;20035;-73
2021/06/04 10:51:53;;;;;;;6.35;2.55;;;;;;;22.32;46.29;101220.44;5072870;28;20032;-73
2021/06/04 10:54:34;;;;;;;3.30;2.42;;;;;;;22.45;47.91;101238.03;5072689;28;20505;-71
2021/06/04 10:57:02;;;;;;;5.03;2.15;;;;;;;22.38;44.01;101236.25;5069788;28;20111;-76
2021/06/04 10:59:57;;;;;;;7.87;2.37;;;;;;;22.62;45.37;101234.50;5072195;28;20033;-74
2021/06/04 11:02:38;;;;;;;8.10;2.15;;;;;;;22.69;47.43;101238.00;5063434;28;20106;-76
2021/06/04 11:05:18;;;;;;;5.57;2.10;;;;;;;22.48;45.37;101236.25;5050757;28;20506;-75
2021/06/04 11:07:55;;;;;;;6.25;2.25;;;;;;;22.36;45.73;101235.34;5054131;28;20035;-73
2021/06/04 11:10:53;;;;;;;6.55;2.60;;;;;;;22.01;48.04;101230.91;5071830;28;20024;-75
2021/06/04 11:13:37;;;;;;;4.10;2.28;;;;;;;22.08;46.72;101226.53;5040995;28;20063;-74
2021/06/04 11:16:02;;;;;;;7.07;3.35;;;;;;;22.15;48.35;101230.94;5071314;28;20024;-72
2021/06/04 11:18:39;;;;;;;3.38;2.65;;;;;;;21.99;46.97;101224.78;5053846;28;20496;-75
2021/06/04 11:21:20;;;;;;;7.75;2.70;;;;;;;22.18;48.42;101235.31;5053554;28;20033;-75
2021/06/04 11:23:54;;;;;;;7.72;2.47;;;;;;;22.22;46.73;101221.28;5068887;28;20046;-75
2021/06/04 11:26:27;;;;;;;2.88;2.22;;;;;;;21.97;46.50;101201.13;5037570;28;20113;-76
2021/06/04 11:29:02;;;;;;;4.30;2.47;;;;;;;22.17;46.79;101229.19;5069471;28;20021;-76
2021/06/04 11:31:30;;;;;;;4.35;2.67;;;;;;;22.24;44.69;101224.81;5067584;28;20086;-74
2021/06/04 11:34:01;;;;;;;4.60;2.67;;;;;;;22.18;47.97;101212.53;5038962;28;20501;-73
2021/06/04 11:36:30;;;;;;;4.25;2.20;;;;;;;22.36;45.78;101226.59;5066110;28;20040;-77
2021/06/04 11:39:07;;;;;;;3.55;2.33;;;;;;;22.34;47.26;101223.06;5056574;28;20025;-76
2021/06/04 11:41:41;;;;;;;6.05;2.60;;;;;;;22.43;47.25;101220.44;5054809;28;20055;-78
2021/06/04 11:44:41;;;;;;;7.35;2.50;;;;;;;22.53;45.75;101223.97;5048430;28;20127;-78
2021/06/04 11:47:13;;;;;;;6.65;2.58;;;;;;;22.65;46.93;101221.31;5064393;28;20024;-78
2021/06/04 11:49:57;;;;;;;4.65;2.40;;;;;;;22.26;45.63;101166.06;5001264;28;20039;-76
2021/06/04 11:52:28;;;;;;;4.40;2.13;;;;;;;22.28;44.33;101166.94;4997765;28;20405;-72
2021/06/04 11:55:28;;;;;;;4.55;2.45;;;;;;;22.22;44.18;101221.28;4998392;28;20065;-75
2021/06/04 11:57:53;;;;;;;5.50;2.40;;;;;;;22.38;43.31;101224.84;4997852;28;20115;-74